sensor_id;sensor_type;location;lat;lon;timestamp;pressure;altitude;pressure_sealevel;temperature;humidity
8451;BME280;4262;50.980;13.892;2023-02-01T04:31:45;50823.03;;;-142.97;52.21
8451;BME280;4262;50.980;13.892;2023-02-01T04:34:12;50817.19;;;-142.97;51.92
8451;BME280;4262;50.980;13.892;2023-02-01T04:36:39;50793.78;;;-142.97;51.87
8451;BME280;4262;50.980;13.892;2023-02-01T04:39:05;50817.19;;;-142.97;51.98
8451;BME280;4262;50.980;13.892;2023-02-01T04:41:32;50797.69;;;-142.97;51.79
8451;BME280;4262;50.980;13.892;2023-02-01T04:43:59;50815.22;;;-142.97;52.27
8451;BME280;4262;50.980;13.892;2023-02-01T04:46:26;50799.63;;;-142.97;52.22
8451;BME280;4262;50.980;13.892;2023-02-01T04:48:54;50799.63;;;-142.97;51.59
8451;BME280;4262;50.980;13.892;2023-02-01T04:51:21;50793.78;;;-142.97;51.58
8451;BME280;4262;50.980;13.892;2023-02-01T04:53:47;50785.97;;;-142.97;51.99
8451;BME280;4262;50.980;13.892;2023-02-01T04:56:14;50815.22;;;-142.97;52.02
8451;BME280;4262;50.980;13.892;2023-02-01T04:58:41;50795.75;;;-142.97;52.11
8451;BME280;4262;50.980;13.892;2023-02-01T05:01:09;50795.75;;;-142.97;52.44
8451;BME280;4262;50.980;13.892;2023-02-01T05:03:36;50764.53;;;-142.97;52.38
8451;BME280;4262;50.980;13.892;2023-02-01T05:06:04;50789.88;;;-142.97;52.16
8451;BME280;4262;50.980;13.892;2023-02-01T05:08:32;50778.19;;;-142.97;51.98
8451;BME280;4262;50.980;13.892;2023-02-01T05:11:00;50807.44;;;-142.97;51.62
8451;BME280;4262;50.980;13.892;2023-02-01T05:13:28;50805.50;;;-142.97;52.02
8451;BME280;4262;50.980;13.892;2023-02-01T05:16:13;50795.75;;;-142.97;52.07
8451;BME280;4262;50.980;13.892;2023-02-01T05:18:39;50799.63;;;-142.97;51.82
8451;BME280;4262;50.980;13.892;2023-02-01T05:21:07;50782.09;;;-142.97;51.66
8451;BME280;4262;50.980;13.892;2023-02-01T05:23:34;50793.78;;;-142.97;51.61
8451;BME280;4262;50.980;13.892;2023-02-01T05:26:22;50803.53;;;-142.97;51.83
8451;BME280;4262;50.980;13.892;2023-02-01T05:28:49;50817.19;;;-142.97;50.96
8451;BME280;4262;50.980;13.892;2023-02-01T05:31:16;50815.22;;;-142.97;51.26
8451;BME280;4262;50.980;13.892;2023-02-01T05:33:42;50801.59;;;-142.97;50.90
8451;BME280;4262;50.980;13.892;2023-02-01T05:36:11;50826.94;;;-142.97;51.30
8451;BME280;4262;50.980;13.892;2023-02-01T05:38:37;50819.13;;;-142.97;50.77
8451;BME280;4262;50.980;13.892;2023-02-01T05:41:04;50778.19;;;-142.97;50.72
8451;BME280;4262;50.980;13.892;2023-02-01T05:43:31;50823.03;;;-142.97;51.20
8451;BME280;4262;50.980;13.892;2023-02-01T05:45:59;50824.97;;;-142.97;50.86
8451;BME280;4262;50.980;13.892;2023-02-01T05:48:26;50797.69;;;-142.97;51.33
8451;BME280;4262;50.980;13.892;2023-02-01T05:50:54;50813.28;;;-142.97;51.46
8451;BME280;4262;50.980;13.892;2023-02-01T05:53:22;50809.38;;;-142.97;51.78
8451;BME280;4262;50.980;13.892;2023-02-01T05:55:49;50797.69;;;-142.97;51.41
8451;BME280;4262;50.980;13.892;2023-02-01T05:58:15;50836.69;;;-142.97;51.44
8451;BME280;4262;50.980;13.892;2023-02-01T06:00:44;50787.94;;;-142.97;51.50
8451;BME280;4262;50.980;13.892;2023-02-01T06:03:10;50836.69;;;-142.97;51.70
8451;BME280;4262;50.980;13.892;2023-02-01T06:05:37;50817.19;;;-142.97;52.12
8451;BME280;4262;50.980;13.892;2023-02-01T06:08:04;50836.69;;;-142.97;52.46
8451;BME280;4262;50.980;13.892;2023-02-01T06:10:35;50780.13;;;-142.97;52.35
8451;BME280;4262;50.980;13.892;2023-02-01T06:13:02;50770.38;;;-142.97;52.42
8451;BME280;4262;50.980;13.892;2023-02-01T06:15:31;50801.59;;;-142.97;52.23
8451;BME280;4262;50.980;13.892;2023-02-01T06:17:57;50803.53;;;-142.97;52.20
8451;BME280;4262;50.980;13.892;2023-02-01T06:20:26;50787.94;;;-142.97;51.99
8451;BME280;4262;50.980;13.892;2023-02-01T06:22:53;50782.09;;;-142.97;52.09
8451;BME280;4262;50.980;13.892;2023-02-01T06:25:20;50809.38;;;-142.97;51.90
8451;BME280;4262;50.980;13.892;2023-02-01T06:27:48;50838.63;;;-142.97;51.82
8451;BME280;4262;50.980;13.892;2023-02-01T06:30:17;50789.88;;;-142.97;52.23
8451;BME280;4262;50.980;13.892;2023-02-01T06:32:50;50754.78;;;-142.97;52.03
8451;BME280;4262;50.980;13.892;2023-02-01T06:35:19;50785.97;;;-142.97;52.18
8451;BME280;4262;50.980;13.892;2023-02-01T06:37:46;50823.03;;;-142.97;52.38
8451;BME280;4262;50.980;13.892;2023-02-01T06:40:13;50799.63;;;-142.97;51.96
8451;BME280;4262;50.980;13.892;2023-02-01T06:43:01;50819.13;;;-142.97;52.43
8451;BME280;4262;50.980;13.892;2023-02-01T06:45:29;50821.09;;;-142.97;52.76
8451;BME280;4262;50.980;13.892;2023-02-01T06:47:56;50797.69;;;-142.97;52.08
8451;BME280;4262;50.980;13.892;2023-02-01T06:50:24;50815.22;;;-142.97;52.31
8451;BME280;4262;50.980;13.892;2023-02-01T06:52:50;50770.38;;;-142.97;52.38
8451;BME280;4262;50.980;13.892;2023-02-01T06:55:17;50774.28;;;-142.97;53.03
8451;BME280;4262;50.980;13.892;2023-02-01T06:57:44;50785.97;;;-142.97;53.28
8451;BME280;4262;50.980;13.892;2023-02-01T07:02:39;50797.69;;;-142.97;53.93
8451;BME280;4262;50.980;13.892;2023-02-01T07:05:07;50797.69;;;-142.97;53.50
8451;BME280;4262;50.980;13.892;2023-02-01T07:07:33;50793.78;;;-142.97;53.17
8451;BME280;4262;50.980;13.892;2023-02-01T07:10:00;50791.84;;;-142.97;53.56
8451;BME280;4262;50.980;13.892;2023-02-01T07:12:27;50780.13;;;-142.97;53.32
8451;BME280;4262;50.980;13.892;2023-02-01T07:14:55;50817.19;;;-142.97;53.42
8451;BME280;4262;50.980;13.892;2023-02-01T07:17:23;50817.19;;;-142.97;53.51
8451;BME280;4262;50.980;13.892;2023-02-01T07:19:50;50807.44;;;-142.97;53.86
8451;BME280;4262;50.980;13.892;2023-02-01T07:22:17;50826.94;;;-142.97;54.10
8451;BME280;4262;50.980;13.892;2023-02-01T07:24:44;50795.75;;;-142.97;55.02
8451;BME280;4262;50.980;13.892;2023-02-01T07:27:11;50824.97;;;-142.97;55.83
8451;BME280;4262;50.980;13.892;2023-02-01T07:29:38;50828.88;;;-142.97;56.27
8451;BME280;4262;50.980;13.892;2023-02-01T07:32:06;50840.59;;;-142.97;56.56
8451;BME280;4262;50.980;13.892;2023-02-01T07:34:34;50789.88;;;-142.97;57.57
8451;BME280;4262;50.980;13.892;2023-02-01T07:37:01;50826.94;;;-142.97;59.46
8451;BME280;4262;50.980;13.892;2023-02-01T07:39:28;50776.25;;;-142.97;60.07
8451;BME280;4262;50.980;13.892;2023-02-01T07:41:58;50865.94;;;-142.97;60.93
8451;BME280;4262;50.980;13.892;2023-02-01T07:44:25;50797.69;;;-142.97;61.22
8451;BME280;4262;50.980;13.892;2023-02-01T07:46:53;50778.19;;;-142.97;61.10
8451;BME280;4262;50.980;13.892;2023-02-01T07:49:20;50817.19;;;-142.97;61.64
8451;BME280;4262;50.980;13.892;2023-02-01T07:51:50;50813.28;;;-142.97;61.65
8451;BME280;4262;50.980;13.892;2023-02-01T07:54:17;50824.97;;;-142.97;61.34
8451;BME280;4262;50.980;13.892;2023-02-01T07:56:43;50799.63;;;-142.97;60.96
8451;BME280;4262;50.980;13.892;2023-02-01T07:59:10;50799.63;;;-142.97;61.45
8451;BME280;4262;50.980;13.892;2023-02-01T08:01:38;50821.09;;;-142.97;60.75
8451;BME280;4262;50.980;13.892;2023-02-01T08:04:04;50834.72;;;-142.97;60.21
8451;BME280;4262;50.980;13.892;2023-02-01T08:06:32;50813.28;;;-142.97;60.25
8451;BME280;4262;50.980;13.892;2023-02-01T08:09:02;50780.13;;;-142.97;60.37
8451;BME280;4262;50.980;13.892;2023-02-01T08:11:31;50817.19;;;-142.97;59.79
8451;BME280;4262;50.980;13.892;2023-02-01T08:13:58;50764.53;;;-142.97;59.47
8451;BME280;4262;50.980;13.892;2023-02-01T08:16:27;50772.34;;;-142.97;59.48
8451;BME280;4262;50.980;13.892;2023-02-01T08:18:54;50801.59;;;-142.97;59.42
8451;BME280;4262;50.980;13.892;2023-02-01T08:21:24;50789.88;;;-142.97;59.57
8451;BME280;4262;50.980;13.892;2023-02-01T08:23:51;50772.34;;;-142.97;59.85
8451;BME280;4262;50.980;13.892;2023-02-01T08:26:21;50815.22;;;-142.97;59.38
8451;BME280;4262;50.980;13.892;2023-02-01T08:28:51;50832.78;;;-142.97;59.86
8451;BME280;4262;50.980;13.892;2023-02-01T08:31:20;50801.59;;;-142.97;59.75
8451;BME280;4262;50.980;13.892;2023-02-01T08:33:50;50797.69;;;-142.97;59.02
8451;BME280;4262;50.980;13.892;2023-02-01T08:36:18;50797.69;;;-142.97;59.92
8451;BME280;4262;50.980;13.892;2023-02-01T08:38:44;50817.19;;;-142.97;59.96
8451;BME280;4262;50.980;13.892;2023-02-01T08:41:14;50813.28;;;-142.97;60.47
8451;BME280;4262;50.980;13.892;2023-02-01T08:43:42;50807.44;;;-142.97;60.13
8451;BME280;4262;50.980;13.892;2023-02-01T08:46:11;50789.88;;;-142.97;59.55
8451;BME280;4262;50.980;13.892;2023-02-01T08:48:38;50811.34;;;-142.97;59.66
8451;BME280;4262;50.980;13.892;2023-02-01T08:51:08;50817.19;;;-142.97;59.16
8451;BME280;4262;50.980;13.892;2023-02-01T08:53:36;50752.84;;;-142.97;58.78
8451;BME280;4262;50.980;13.892;2023-02-01T08:56:04;50785.97;;;-142.97;57.94
8451;BME280;4262;50.980;13.892;2023-02-01T08:58:30;50813.28;;;-142.97;57.09
8451;BME280;4262;50.980;13.892;2023-02-01T09:01:03;50803.53;;;-142.97;57.06
8451;BME280;4262;50.980;13.892;2023-02-01T09:03:31;50784.03;;;-142.97;56.32
8451;BME280;4262;50.980;13.892;2023-02-01T09:06:01;50824.97;;;-142.97;56.14
8451;BME280;4262;50.980;13.892;2023-02-01T09:08:28;50772.34;;;-142.97;55.55
8451;BME280;4262;50.980;13.892;2023-02-01T09:10:59;50776.25;;;-142.97;55.93
8451;BME280;4262;50.980;13.892;2023-02-01T09:13:26;50776.25;;;-142.97;55.48
8451;BME280;4262;50.980;13.892;2023-02-01T09:15:54;50754.78;;;-142.97;54.55
8451;BME280;4262;50.980;13.892;2023-02-01T09:18:22;50787.94;;;-142.97;54.24
8451;BME280;4262;50.980;13.892;2023-02-01T09:20:49;50789.88;;;-142.97;53.99
8451;BME280;4262;50.980;13.892;2023-02-01T09:23:16;50801.59;;;-142.97;54.39
8451;BME280;4262;50.980;13.892;2023-02-01T09:25:43;50780.13;;;-142.97;54.70
8451;BME280;4262;50.980;13.892;2023-02-01T09:28:10;50801.59;;;-142.97;54.98
8451;BME280;4262;50.980;13.892;2023-02-01T09:30:38;50793.78;;;-142.97;55.30
8451;BME280;4262;50.980;13.892;2023-02-01T09:33:04;50776.25;;;-142.97;55.52
8451;BME280;4262;50.980;13.892;2023-02-01T09:35:33;50799.63;;;-142.97;55.42
8451;BME280;4262;50.980;13.892;2023-02-01T09:37:59;50784.03;;;-142.97;56.42
8451;BME280;4262;50.980;13.892;2023-02-01T09:40:26;50784.03;;;-142.97;57.05
8451;BME280;4262;50.980;13.892;2023-02-01T09:43:02;50789.88;;;-142.97;58.83
8451;BME280;4262;50.980;13.892;2023-02-01T09:45:39;50791.84;;;-142.97;59.46
8451;BME280;4262;50.980;13.892;2023-02-01T09:48:13;50752.84;;;-142.97;59.24
8451;BME280;4262;50.980;13.892;2023-02-01T09:50:45;50782.09;;;-142.97;59.29
8451;BME280;4262;50.980;13.892;2023-02-01T09:53:18;50793.78;;;-142.97;60.21
8451;BME280;4262;50.980;13.892;2023-02-01T09:55:49;50809.38;;;-142.97;61.87
8451;BME280;4262;50.980;13.892;2023-02-01T09:58:20;50784.03;;;-142.97;62.56
8451;BME280;4262;50.980;13.892;2023-02-01T10:00:52;50782.09;;;-142.97;64.15
8451;BME280;4262;50.980;13.892;2023-02-01T10:03:19;50793.78;;;-142.97;64.92
8451;BME280;4262;50.980;13.892;2023-02-01T10:06:01;50785.97;;;-142.97;66.43
8451;BME280;4262;50.980;13.892;2023-02-01T10:08:40;50793.78;;;-142.97;66.99
8451;BME280;4262;50.980;13.892;2023-02-01T10:11:21;50801.59;;;-142.97;68.97
8451;BME280;4262;50.980;13.892;2023-02-01T10:13:54;50803.53;;;-142.97;69.01
8451;BME280;4262;50.980;13.892;2023-02-01T10:16:37;50811.34;;;-142.97;69.48
8451;BME280;4262;50.980;13.892;2023-02-01T10:19:25;50793.78;;;-142.97;69.21
8451;BME280;4262;50.980;13.892;2023-02-01T10:22:02;50817.19;;;-142.97;69.14
8451;BME280;4262;50.980;13.892;2023-02-01T10:24:41;50823.03;;;-142.97;69.60
8451;BME280;4262;50.980;13.892;2023-02-01T10:27:13;50801.59;;;-142.97;69.41
8451;BME280;4262;50.980;13.892;2023-02-01T10:29:43;50791.84;;;-142.97;69.09
8451;BME280;4262;50.980;13.892;2023-02-01T10:32:17;50819.13;;;-142.97;69.03
8451;BME280;4262;50.980;13.892;2023-02-01T10:34:46;50813.28;;;-142.97;67.98
8451;BME280;4262;50.980;13.892;2023-02-01T10:37:27;50797.69;;;-142.97;68.67
8451;BME280;4262;50.980;13.892;2023-02-01T10:39:56;50826.94;;;-142.97;68.23
8451;BME280;4262;50.980;13.892;2023-02-01T10:42:27;50813.28;;;-142.97;68.17
8451;BME280;4262;50.980;13.892;2023-02-01T10:44:58;50807.44;;;-142.97;68.19
8451;BME280;4262;50.980;13.892;2023-02-01T10:47:26;50826.94;;;-142.97;67.62
8451;BME280;4262;50.980;13.892;2023-02-01T10:49:56;50832.78;;;-142.97;68.22
8451;BME280;4262;50.980;13.892;2023-02-01T10:52:36;50797.69;;;-142.97;67.87
8451;BME280;4262;50.980;13.892;2023-02-01T10:55:36;50805.50;;;-142.97;67.54
8451;BME280;4262;50.980;13.892;2023-02-01T10:58:05;50791.84;;;-142.97;67.26
8451;BME280;4262;50.980;13.892;2023-02-01T11:00:41;50782.09;;;-142.97;67.02
8451;BME280;4262;50.980;13.892;2023-02-01T11:03:32;50789.88;;;-142.97;65.74
8451;BME280;4262;50.980;13.892;2023-02-01T11:06:00;50785.97;;;-142.97;65.61
8451;BME280;4262;50.980;13.892;2023-02-01T11:08:29;50817.19;;;-142.97;64.97
8451;BME280;4262;50.980;13.892;2023-02-01T11:10:58;50780.13;;;-142.97;64.50
8451;BME280;4262;50.980;13.892;2023-02-01T11:13:29;50811.34;;;-142.97;64.12
8451;BME280;4262;50.980;13.892;2023-02-01T11:15:56;50801.59;;;-142.97;64.57
8451;BME280;4262;50.980;13.892;2023-02-01T11:18:26;50780.13;;;-142.97;64.15
8451;BME280;4262;50.980;13.892;2023-02-01T11:20:54;50801.59;;;-142.97;63.18
8451;BME280;4262;50.980;13.892;2023-02-01T11:23:23;50787.94;;;-142.97;62.65
8451;BME280;4262;50.980;13.892;2023-02-01T11:25:53;50809.38;;;-142.97;62.64
8451;BME280;4262;50.980;13.892;2023-02-01T11:28:22;50795.75;;;-142.97;62.29
8451;BME280;4262;50.980;13.892;2023-02-01T11:30:54;50795.75;;;-142.97;61.63
8451;BME280;4262;50.980;13.892;2023-02-01T11:33:25;50805.50;;;-142.97;61.78
8451;BME280;4262;50.980;13.892;2023-02-01T11:35:56;50789.88;;;-142.97;61.07
8451;BME280;4262;50.980;13.892;2023-02-01T11:38:28;50803.53;;;-142.97;61.00
8451;BME280;4262;50.980;13.892;2023-02-01T11:41:12;50803.53;;;-142.97;59.91
8451;BME280;4262;50.980;13.892;2023-02-01T11:43:51;50787.94;;;-142.97;60.06
8451;BME280;4262;50.980;13.892;2023-02-01T11:46:23;50799.63;;;-142.97;59.80
8451;BME280;4262;50.980;13.892;2023-02-01T11:48:53;50844.47;;;-142.97;60.04
8451;BME280;4262;50.980;13.892;2023-02-01T11:51:28;50803.53;;;-142.97;59.39
8451;BME280;4262;50.980;13.892;2023-02-01T11:54:08;50797.69;;;-142.97;59.42
8451;BME280;4262;50.980;13.892;2023-02-01T11:56:47;50817.19;;;-142.97;59.54
8451;BME280;4262;50.980;13.892;2023-02-01T11:59:31;50817.19;;;-142.97;59.37
8451;BME280;4262;50.980;13.892;2023-02-01T12:02:23;50821.09;;;-142.97;59.03
8451;BME280;4262;50.980;13.892;2023-02-01T12:05:15;50805.50;;;-142.97;59.31
8451;BME280;4262;50.980;13.892;2023-02-01T12:07:58;50776.25;;;-142.97;59.46
8451;BME280;4262;50.980;13.892;2023-02-01T12:10:38;50811.34;;;-142.97;59.70
8451;BME280;4262;50.980;13.892;2023-02-01T12:13:17;50754.78;;;-142.97;59.84
8451;BME280;4262;50.980;13.892;2023-02-01T12:15:58;50828.88;;;-142.97;59.17
8451;BME280;4262;50.980;13.892;2023-02-01T12:21:45;50815.22;;;-142.97;59.11
8451;BME280;4262;50.980;13.892;2023-02-01T12:24:35;50803.53;;;-142.97;58.39
8451;BME280;4262;50.980;13.892;2023-02-01T12:30:43;50828.88;;;-142.97;57.69
8451;BME280;4262;50.980;13.892;2023-02-01T12:33:18;50842.53;;;-142.97;57.93
8451;BME280;4262;50.980;13.892;2023-02-01T12:35:58;50799.63;;;-142.97;57.53
8451;BME280;4262;50.980;13.892;2023-02-01T12:38:38;50811.34;;;-142.97;57.19
8451;BME280;4262;50.980;13.892;2023-02-01T12:41:16;50809.38;;;-142.97;56.37
8451;BME280;4262;50.980;13.892;2023-02-01T12:43:49;50807.44;;;-142.97;56.49
8451;BME280;4262;50.980;13.892;2023-02-01T12:46:23;50805.50;;;-142.97;56.49
8451;BME280;4262;50.980;13.892;2023-02-01T12:48:56;50828.88;;;-142.97;56.78
8451;BME280;4262;50.980;13.892;2023-02-01T12:51:28;50795.75;;;-142.97;56.85
8451;BME280;4262;50.980;13.892;2023-02-01T12:54:01;50774.28;;;-142.97;56.85
8451;BME280;4262;50.980;13.892;2023-02-01T12:56:34;50797.69;;;-142.97;56.58
8451;BME280;4262;50.980;13.892;2023-02-01T12:59:07;50799.63;;;-142.97;56.36
8451;BME280;4262;50.980;13.892;2023-02-01T13:01:44;50807.44;;;-142.97;56.12
8451;BME280;4262;50.980;13.892;2023-02-01T13:04:17;50813.28;;;-142.97;55.94
8451;BME280;4262;50.980;13.892;2023-02-01T13:06:49;50791.84;;;-142.97;55.90
8451;BME280;4262;50.980;13.892;2023-02-01T13:09:23;50803.53;;;-142.97;55.87
8451;BME280;4262;50.980;13.892;2023-02-01T13:11:54;50817.19;;;-142.97;55.52
8451;BME280;4262;50.980;13.892;2023-02-01T13:14:29;50797.69;;;-142.97;55.40
8451;BME280;4262;50.980;13.892;2023-02-01T13:17:05;50819.13;;;-142.97;55.62
8451;BME280;4262;50.980;13.892;2023-02-01T13:19:40;50815.22;;;-142.97;55.29
8451;BME280;4262;50.980;13.892;2023-02-01T13:22:12;50813.28;;;-142.97;55.09
8451;BME280;4262;50.980;13.892;2023-02-01T13:24:42;50797.69;;;-142.97;55.11
8451;BME280;4262;50.980;13.892;2023-02-01T13:27:12;50797.69;;;-142.97;54.71
8451;BME280;4262;50.980;13.892;2023-02-01T13:29:45;50787.94;;;-142.97;54.61
8451;BME280;4262;50.980;13.892;2023-02-01T13:32:37;50801.59;;;-142.97;54.55
8451;BME280;4262;50.980;13.892;2023-02-01T13:35:23;50809.38;;;-142.97;54.20
8451;BME280;4262;50.980;13.892;2023-02-01T13:38:06;50834.72;;;-142.97;54.22
8451;BME280;4262;50.980;13.892;2023-02-01T13:40:39;50834.72;;;-142.97;54.35
8451;BME280;4262;50.980;13.892;2023-02-01T13:43:13;50809.38;;;-142.97;54.46
8451;BME280;4262;50.980;13.892;2023-02-01T13:45:46;50807.44;;;-142.97;54.07
8451;BME280;4262;50.980;13.892;2023-02-01T13:48:22;50819.13;;;-142.97;54.31
8451;BME280;4262;50.980;13.892;2023-02-01T13:50:52;50807.44;;;-142.97;54.27
8451;BME280;4262;50.980;13.892;2023-02-01T13:53:25;50780.13;;;-142.97;53.25
8451;BME280;4262;50.980;13.892;2023-02-01T13:56:00;50801.59;;;-142.97;53.39
8451;BME280;4262;50.980;13.892;2023-02-01T13:58:33;50817.19;;;-142.97;53.20
8451;BME280;4262;50.980;13.892;2023-02-01T14:01:31;50799.63;;;-142.97;52.98
8451;BME280;4262;50.980;13.892;2023-02-01T14:04:01;50821.09;;;-142.97;52.35
8451;BME280;4262;50.980;13.892;2023-02-01T14:06:42;50826.94;;;-142.97;52.49
8451;BME280;4262;50.980;13.892;2023-02-01T14:09:15;50821.09;;;-142.97;52.40
8451;BME280;4262;50.980;13.892;2023-02-01T14:11:46;50813.28;;;-142.97;52.19
8451;BME280;4262;50.980;13.892;2023-02-01T14:14:47;50793.78;;;-142.97;52.06
8451;BME280;4262;50.980;13.892;2023-02-01T14:17:34;50828.88;;;-142.97;51.51
8451;BME280;4262;50.980;13.892;2023-02-01T14:20:38;50784.03;;;-142.97;51.11
8451;BME280;4262;50.980;13.892;2023-02-01T14:23:12;50815.22;;;-142.97;51.00
8451;BME280;4262;50.980;13.892;2023-02-01T14:25:40;50795.75;;;-142.97;51.05
8451;BME280;4262;50.980;13.892;2023-02-01T14:28:11;50821.09;;;-142.97;50.54
8451;BME280;4262;50.980;13.892;2023-02-01T14:30:42;50760.63;;;-142.97;50.83
8451;BME280;4262;50.980;13.892;2023-02-01T14:33:16;50803.53;;;-142.97;50.79
8451;BME280;4262;50.980;13.892;2023-02-01T14:35:56;50832.78;;;-142.97;50.36
8451;BME280;4262;50.980;13.892;2023-02-01T14:38:27;50809.38;;;-142.97;50.40
8451;BME280;4262;50.980;13.892;2023-02-01T14:41:11;50799.63;;;-142.97;50.30
8451;BME280;4262;50.980;13.892;2023-02-01T14:43:51;50811.34;;;-142.97;50.23
8451;BME280;4262;50.980;13.892;2023-02-01T14:47:07;50805.50;;;-142.97;50.08
8451;BME280;4262;50.980;13.892;2023-02-01T14:49:37;50799.63;;;-142.97;50.38
8451;BME280;4262;50.980;13.892;2023-02-01T14:52:12;50782.09;;;-142.97;50.30
8451;BME280;4262;50.980;13.892;2023-02-01T14:54:41;50803.53;;;-142.97;50.47
8451;BME280;4262;50.980;13.892;2023-02-01T14:57:15;50842.53;;;-142.97;50.54
8451;BME280;4262;50.980;13.892;2023-02-01T14:59:45;50795.75;;;-142.97;50.71
8451;BME280;4262;50.980;13.892;2023-02-01T15:02:20;50840.59;;;-142.97;50.44
8451;BME280;4262;50.980;13.892;2023-02-01T15:04:54;50787.94;;;-142.97;50.35
8451;BME280;4262;50.980;13.892;2023-02-01T15:07:24;50826.94;;;-142.97;50.28
8451;BME280;4262;50.980;13.892;2023-02-01T15:09:53;50784.03;;;-142.97;49.71
8451;BME280;4262;50.980;13.892;2023-02-01T15:12:24;50803.53;;;-142.97;49.69
8451;BME280;4262;50.980;13.892;2023-02-01T15:15:12;50830.84;;;-142.97;50.02
8451;BME280;4262;50.980;13.892;2023-02-01T15:17:40;50791.84;;;-142.97;49.89
8451;BME280;4262;50.980;13.892;2023-02-01T15:20:14;50797.69;;;-142.97;49.01
8451;BME280;4262;50.980;13.892;2023-02-01T15:22:52;50828.88;;;-142.97;50.17
8451;BME280;4262;50.980;13.892;2023-02-01T15:25:21;50793.78;;;-142.97;50.71
8451;BME280;4262;50.980;13.892;2023-02-01T15:27:48;50782.09;;;-142.97;51.70
8451;BME280;4262;50.980;13.892;2023-02-01T15:30:18;50819.13;;;-142.97;53.86
8451;BME280;4262;50.980;13.892;2023-02-01T15:32:48;50830.84;;;-142.97;55.50
8451;BME280;4262;50.980;13.892;2023-02-01T15:35:39;50811.34;;;-142.97;56.52
8451;BME280;4262;50.980;13.892;2023-02-01T15:38:33;50819.13;;;-142.97;57.78
8451;BME280;4262;50.980;13.892;2023-02-01T15:41:06;50758.69;;;-142.97;57.24
8451;BME280;4262;50.980;13.892;2023-02-01T15:43:36;50811.34;;;-142.97;56.78
8451;BME280;4262;50.980;13.892;2023-02-01T15:46:11;50819.13;;;-142.97;56.01
8451;BME280;4262;50.980;13.892;2023-02-01T15:48:42;50813.28;;;-142.97;55.78
8451;BME280;4262;50.980;13.892;2023-02-01T15:51:14;50805.50;;;-142.97;56.10
8451;BME280;4262;50.980;13.892;2023-02-01T15:53:49;50824.97;;;-142.97;54.59
8451;BME280;4262;50.980;13.892;2023-02-01T15:56:22;50832.78;;;-142.97;55.01
8451;BME280;4262;50.980;13.892;2023-02-01T15:58:53;50842.53;;;-142.97;54.34
8451;BME280;4262;50.980;13.892;2023-02-01T16:01:22;50782.09;;;-142.97;54.17
8451;BME280;4262;50.980;13.892;2023-02-01T16:03:49;50824.97;;;-142.97;54.50
8451;BME280;4262;50.980;13.892;2023-02-01T16:06:30;50811.34;;;-142.97;55.29
8451;BME280;4262;50.980;13.892;2023-02-01T16:09:10;50803.53;;;-142.97;55.47
8451;BME280;4262;50.980;13.892;2023-02-01T16:11:46;50780.13;;;-142.97;55.78
8451;BME280;4262;50.980;13.892;2023-02-01T16:14:13;50821.09;;;-142.97;56.61
8451;BME280;4262;50.980;13.892;2023-02-01T16:16:40;50826.94;;;-142.97;57.36
8451;BME280;4262;50.980;13.892;2023-02-01T16:19:07;50774.28;;;-142.97;58.93
8451;BME280;4262;50.980;13.892;2023-02-01T16:21:34;50799.63;;;-142.97;59.33
8451;BME280;4262;50.980;13.892;2023-02-01T16:24:01;50762.59;;;-142.97;59.84
8451;BME280;4262;50.980;13.892;2023-02-01T16:26:31;50836.69;;;-142.97;60.16
8451;BME280;4262;50.980;13.892;2023-02-01T16:28:59;50799.63;;;-142.97;60.52
8451;BME280;4262;50.980;13.892;2023-02-01T16:31:30;50778.19;;;-142.97;60.62
8451;BME280;4262;50.980;13.892;2023-02-01T16:33:57;50824.97;;;-142.97;61.10
8451;BME280;4262;50.980;13.892;2023-02-01T16:36:25;50768.44;;;-142.97;60.86
8451;BME280;4262;50.980;13.892;2023-02-01T16:38:52;50793.78;;;-142.97;61.04
8451;BME280;4262;50.980;13.892;2023-02-01T16:41:21;50819.13;;;-142.97;61.38
8451;BME280;4262;50.980;13.892;2023-02-01T16:43:51;50770.38;;;-142.97;61.51
8451;BME280;4262;50.980;13.892;2023-02-01T16:46:20;50768.44;;;-142.97;61.28
8451;BME280;4262;50.980;13.892;2023-02-01T16:48:52;50805.50;;;-142.97;61.46
8451;BME280;4262;50.980;13.892;2023-02-01T16:51:19;50764.53;;;-142.97;61.61
8451;BME280;4262;50.980;13.892;2023-02-01T16:53:46;50807.44;;;-142.97;62.18
8451;BME280;4262;50.980;13.892;2023-02-01T16:56:14;50797.69;;;-142.97;62.61
8451;BME280;4262;50.980;13.892;2023-02-01T16:58:42;50805.50;;;-142.97;62.46
8451;BME280;4262;50.980;13.892;2023-02-01T17:01:12;50782.09;;;-142.97;62.30
8451;BME280;4262;50.980;13.892;2023-02-01T17:03:40;50782.09;;;-142.97;63.12
8451;BME280;4262;50.980;13.892;2023-02-01T17:06:09;50795.75;;;-142.97;63.35
8451;BME280;4262;50.980;13.892;2023-02-01T17:08:38;50823.03;;;-142.97;64.06
8451;BME280;4262;50.980;13.892;2023-02-01T17:11:07;50809.38;;;-142.97;65.91
8451;BME280;4262;50.980;13.892;2023-02-01T17:13:34;50807.44;;;-142.97;68.03
8451;BME280;4262;50.980;13.892;2023-02-01T17:16:03;50785.97;;;-142.97;69.18
8451;BME280;4262;50.980;13.892;2023-02-01T17:18:33;50799.63;;;-142.97;74.65
8451;BME280;4262;50.980;13.892;2023-02-01T17:21:02;50789.88;;;-142.97;31.44
8451;BME280;4262;50.980;13.892;2023-02-01T17:23:32;50745.03;;;-142.97;28.82
8451;BME280;4262;50.980;13.892;2023-02-01T17:25:58;50784.03;;;-142.97;27.79
8451;BME280;4262;50.980;13.892;2023-02-01T17:28:26;50747.00;;;-142.97;27.98
8451;BME280;4262;50.980;13.892;2023-02-01T17:30:53;50762.59;;;-142.97;27.69
8451;BME280;4262;50.980;13.892;2023-02-01T17:33:25;50785.97;;;-142.97;28.11
8451;BME280;4262;50.980;13.892;2023-02-01T17:35:54;50741.13;;;-142.97;27.26
8451;BME280;4262;50.980;13.892;2023-02-01T17:38:21;50754.78;;;-142.97;27.97
8451;BME280;4262;50.980;13.892;2023-02-01T17:40:48;50758.69;;;-142.97;26.95
8451;BME280;4262;50.980;13.892;2023-02-01T17:43:20;50713.84;;;-142.97;26.22
8451;BME280;4262;50.980;13.892;2023-02-01T17:45:49;50704.09;;;-142.97;25.50
8451;BME280;4262;50.980;13.892;2023-02-01T17:48:18;50713.84;;;-142.97;26.02
8451;BME280;4262;50.980;13.892;2023-02-01T17:50:46;50719.69;;;-142.97;26.20
8451;BME280;4262;50.980;13.892;2023-02-01T17:53:17;50723.59;;;-142.97;26.34